sensor_id;sensor_type;location;lat;lon;timestamp;temperature;humidity
23102;DHT22;11720;51.214;22.574;2023-02-17T00:01:59;1.90;99.90
23102;DHT22;11720;51.214;22.574;2023-02-17T00:04:27;1.80;99.90
23102;DHT22;11720;51.214;22.574;2023-02-17T00:06:53;1.80;99.90
23102;DHT22;11720;51.214;22.574;2023-02-17T00:09:19;1.80;99.90
23102;DHT22;11720;51.214;22.574;2023-02-17T00:11:44;1.80;99.90
23102;DHT22;11720;51.214;22.574;2023-02-17T00:14:11;1.70;99.90
23102;DHT22;11720;51.214;22.574;2023-02-17T00:16:37;1.80;99.90
23102;DHT22;11720;51.214;22.574;2023-02-17T00:19:03;1.70;99.90
23102;DHT22;11720;51.214;22.574;2023-02-17T00:21:51;1.70;99.90
23102;DHT22;11720;51.214;22.574;2023-02-17T00:24:17;1.70;99.90
23102;DHT22;11720;51.214;22.574;2023-02-17T00:26:43;1.60;99.90
23102;DHT22;11720;51.214;22.574;2023-02-17T00:29:09;1.60;99.90
23102;DHT22;11720;51.214;22.574;2023-02-17T00:31:34;1.60;99.90
23102;DHT22;11720;51.214;22.574;2023-02-17T00:34:00;1.50;99.90
23102;DHT22;11720;51.214;22.574;2023-02-17T00:36:26;1.50;99.90
23102;DHT22;11720;51.214;22.574;2023-02-17T00:38:54;1.70;99.90
23102;DHT22;11720;51.214;22.574;2023-02-17T00:41:21;1.60;99.90
23102;DHT22;11720;51.214;22.574;2023-02-17T00:43:47;1.60;99.90
23102;DHT22;11720;51.214;22.574;2023-02-17T00:46:13;1.60;99.90
23102;DHT22;11720;51.214;22.574;2023-02-17T00:48:39;1.50;99.90
23102;DHT22;11720;51.214;22.574;2023-02-17T00:51:05;1.60;99.90
23102;DHT22;11720;51.214;22.574;2023-02-17T00:53:31;1.50;99.90
23102;DHT22;11720;51.214;22.574;2023-02-17T00:55:57;1.50;99.90
23102;DHT22;11720;51.214;22.574;2023-02-17T00:58:22;1.50;99.90
23102;DHT22;11720;51.214;22.574;2023-02-17T01:00:48;1.50;99.90
23102;DHT22;11720;51.214;22.574;2023-02-17T01:03:14;1.50;99.90
23102;DHT22;11720;51.214;22.574;2023-02-17T01:05:46;1.50;99.90
23102;DHT22;11720;51.214;22.574;2023-02-17T01:08:12;1.50;99.90
23102;DHT22;11720;51.214;22.574;2023-02-17T01:10:40;1.40;99.90
23102;DHT22;11720;51.214;22.574;2023-02-17T01:13:06;1.40;99.90
23102;DHT22;11720;51.214;22.574;2023-02-17T01:15:40;1.40;99.90
23102;DHT22;11720;51.214;22.574;2023-02-17T01:18:06;1.40;99.90
23102;DHT22;11720;51.214;22.574;2023-02-17T01:20:36;1.40;99.90
23102;DHT22;11720;51.214;22.574;2023-02-17T01:23:02;1.50;99.90
23102;DHT22;11720;51.214;22.574;2023-02-17T01:25:28;1.40;99.90
23102;DHT22;11720;51.214;22.574;2023-02-17T01:27:54;1.40;99.90
23102;DHT22;11720;51.214;22.574;2023-02-17T01:30:20;1.50;99.90
23102;DHT22;11720;51.214;22.574;2023-02-17T01:32:46;1.50;99.90
23102;DHT22;11720;51.214;22.574;2023-02-17T01:35:11;1.50;99.90
23102;DHT22;11720;51.214;22.574;2023-02-17T01:37:37;1.50;99.90
23102;DHT22;11720;51.214;22.574;2023-02-17T01:40:04;1.50;99.90
23102;DHT22;11720;51.214;22.574;2023-02-17T01:42:30;1.50;99.90
23102;DHT22;11720;51.214;22.574;2023-02-17T01:48:10;1.50;99.90
23102;DHT22;11720;51.214;22.574;2023-02-17T01:50:38;1.50;99.90
23102;DHT22;11720;51.214;22.574;2023-02-17T01:53:06;1.60;99.90
23102;DHT22;11720;51.214;22.574;2023-02-17T01:55:35;1.50;99.90
23102;DHT22;11720;51.214;22.574;2023-02-17T01:58:02;1.60;99.90
23102;DHT22;11720;51.214;22.574;2023-02-17T02:00:30;1.50;99.90
23102;DHT22;11720;51.214;22.574;2023-02-17T02:02:57;1.50;99.90
23102;DHT22;11720;51.214;22.574;2023-02-17T02:05:25;1.50;99.90
23102;DHT22;11720;51.214;22.574;2023-02-17T02:07:51;1.50;99.90
23102;DHT22;11720;51.214;22.574;2023-02-17T02:10:18;1.50;99.90
23102;DHT22;11720;51.214;22.574;2023-02-17T02:12:44;1.50;99.90
23102;DHT22;11720;51.214;22.574;2023-02-17T02:15:22;1.40;99.90
23102;DHT22;11720;51.214;22.574;2023-02-17T02:32:52;1.50;99.90
23102;DHT22;11720;51.214;22.574;2023-02-17T02:35:53;1.50;99.90
23102;DHT22;11720;51.214;22.574;2023-02-17T02:39:27;1.50;99.90
23102;DHT22;11720;51.214;22.574;2023-02-17T02:41:33;1.50;99.90
23102;DHT22;11720;51.214;22.574;2023-02-17T02:44:04;1.50;99.90
23102;DHT22;11720;51.214;22.574;2023-02-17T02:46:31;1.50;99.90
23102;DHT22;11720;51.214;22.574;2023-02-17T02:48:56;1.50;99.90
23102;DHT22;11720;51.214;22.574;2023-02-17T02:51:35;1.50;99.90
23102;DHT22;11720;51.214;22.574;2023-02-17T02:57:21;1.60;99.90
23102;DHT22;11720;51.214;22.574;2023-02-17T03:00:05;1.60;99.90
23102;DHT22;11720;51.214;22.574;2023-02-17T03:10:57;1.60;99.90
23102;DHT22;11720;51.214;22.574;2023-02-17T03:13:23;1.70;99.90
23102;DHT22;11720;51.214;22.574;2023-02-17T03:15:49;1.70;99.90
23102;DHT22;11720;51.214;22.574;2023-02-17T03:18:14;1.70;99.90
23102;DHT22;11720;51.214;22.574;2023-02-17T03:20:55;1.70;99.90
23102;DHT22;11720;51.214;22.574;2023-02-17T03:23:21;1.70;99.90
23102;DHT22;11720;51.214;22.574;2023-02-17T03:25:47;1.70;99.90
23102;DHT22;11720;51.214;22.574;2023-02-17T03:28:14;1.70;99.90
23102;DHT22;11720;51.214;22.574;2023-02-17T03:30:40;1.70;99.90
23102;DHT22;11720;51.214;22.574;2023-02-17T03:33:06;1.70;99.90
23102;DHT22;11720;51.214;22.574;2023-02-17T03:35:32;3.00;99.90
23102;DHT22;11720;51.214;22.574;2023-02-17T03:37:58;1.70;99.90
23102;DHT22;11720;51.214;22.574;2023-02-17T03:40:23;1.70;99.90
23102;DHT22;11720;51.214;22.574;2023-02-17T03:42:49;1.60;99.90
23102;DHT22;11720;51.214;22.574;2023-02-17T03:45:15;1.60;99.90
23102;DHT22;11720;51.214;22.574;2023-02-17T03:47:40;1.60;99.90
23102;DHT22;11720;51.214;22.574;2023-02-17T03:50:06;1.60;99.90
23102;DHT22;11720;51.214;22.574;2023-02-17T03:52:32;1.60;99.90
23102;DHT22;11720;51.214;22.574;2023-02-17T03:54:58;1.60;99.90
23102;DHT22;11720;51.214;22.574;2023-02-17T03:57:24;1.60;99.90
23102;DHT22;11720;51.214;22.574;2023-02-17T03:59:49;1.60;99.90
23102;DHT22;11720;51.214;22.574;2023-02-17T04:02:15;1.70;99.90
23102;DHT22;11720;51.214;22.574;2023-02-17T04:04:40;1.60;99.90
23102;DHT22;11720;51.214;22.574;2023-02-17T04:07:06;1.70;99.90
23102;DHT22;11720;51.214;22.574;2023-02-17T04:09:32;1.70;99.90
23102;DHT22;11720;51.214;22.574;2023-02-17T04:11:57;1.70;99.90
23102;DHT22;11720;51.214;22.574;2023-02-17T04:14:23;1.70;99.90
23102;DHT22;11720;51.214;22.574;2023-02-17T04:16:49;1.70;99.90
23102;DHT22;11720;51.214;22.574;2023-02-17T04:19:14;1.70;99.90
23102;DHT22;11720;51.214;22.574;2023-02-17T04:21:40;1.70;99.90
23102;DHT22;11720;51.214;22.574;2023-02-17T04:24:06;1.90;99.90
23102;DHT22;11720;51.214;22.574;2023-02-17T04:26:31;1.70;99.90
23102;DHT22;11720;51.214;22.574;2023-02-17T04:28:57;1.80;99.90
23102;DHT22;11720;51.214;22.574;2023-02-17T04:31:23;1.70;99.90
23102;DHT22;11720;51.214;22.574;2023-02-17T04:33:50;1.80;99.90
23102;DHT22;11720;51.214;22.574;2023-02-17T04:36:16;1.80;99.90
23102;DHT22;11720;51.214;22.574;2023-02-17T04:38:41;1.80;99.90
23102;DHT22;11720;51.214;22.574;2023-02-17T04:41:07;1.80;99.90
23102;DHT22;11720;51.214;22.574;2023-02-17T04:43:33;1.80;99.90
23102;DHT22;11720;51.214;22.574;2023-02-17T04:45:58;1.80;99.90
23102;DHT22;11720;51.214;22.574;2023-02-17T04:48:25;1.80;99.90
23102;DHT22;11720;51.214;22.574;2023-02-17T04:50:50;1.80;99.90
23102;DHT22;11720;51.214;22.574;2023-02-17T04:53:16;1.80;99.90
23102;DHT22;11720;51.214;22.574;2023-02-17T04:55:42;1.90;99.90
23102;DHT22;11720;51.214;22.574;2023-02-17T04:58:08;1.90;99.90
23102;DHT22;11720;51.214;22.574;2023-02-17T05:00:35;1.80;99.90
23102;DHT22;11720;51.214;22.574;2023-02-17T05:03:01;1.90;99.90
23102;DHT22;11720;51.214;22.574;2023-02-17T05:05:27;1.90;99.90
23102;DHT22;11720;51.214;22.574;2023-02-17T05:07:52;1.90;99.90
23102;DHT22;11720;51.214;22.574;2023-02-17T05:10:19;1.90;99.90
23102;DHT22;11720;51.214;22.574;2023-02-17T05:12:45;2.00;99.90
23102;DHT22;11720;51.214;22.574;2023-02-17T05:15:11;2.00;99.90
23102;DHT22;11720;51.214;22.574;2023-02-17T05:17:37;2.00;99.90
23102;DHT22;11720;51.214;22.574;2023-02-17T05:20:04;2.00;99.90
23102;DHT22;11720;51.214;22.574;2023-02-17T05:22:30;2.00;99.90
23102;DHT22;11720;51.214;22.574;2023-02-17T05:24:55;2.00;99.90
23102;DHT22;11720;51.214;22.574;2023-02-17T05:27:21;2.00;99.90
23102;DHT22;11720;51.214;22.574;2023-02-17T05:29:47;2.00;99.90
23102;DHT22;11720;51.214;22.574;2023-02-17T05:32:12;2.10;99.90
23102;DHT22;11720;51.214;22.574;2023-02-17T05:34:38;2.00;99.90
23102;DHT22;11720;51.214;22.574;2023-02-17T05:37:04;2.00;99.90
23102;DHT22;11720;51.214;22.574;2023-02-17T05:39:30;2.00;99.90
23102;DHT22;11720;51.214;22.574;2023-02-17T05:41:55;1.90;99.90
23102;DHT22;11720;51.214;22.574;2023-02-17T05:44:21;2.00;99.90
23102;DHT22;11720;51.214;22.574;2023-02-17T05:46:47;2.00;99.90
23102;DHT22;11720;51.214;22.574;2023-02-17T05:49:12;2.00;99.90
23102;DHT22;11720;51.214;22.574;2023-02-17T05:51:38;2.00;99.90
23102;DHT22;11720;51.214;22.574;2023-02-17T05:54:04;1.90;99.90
23102;DHT22;11720;51.214;22.574;2023-02-17T05:56:30;2.00;99.90
23102;DHT22;11720;51.214;22.574;2023-02-17T05:58:55;1.90;99.90
23102;DHT22;11720;51.214;22.574;2023-02-17T06:01:21;2.00;99.90
23102;DHT22;11720;51.214;22.574;2023-02-17T06:03:47;1.90;99.90
23102;DHT22;11720;51.214;22.574;2023-02-17T06:06:12;2.00;99.90
23102;DHT22;11720;51.214;22.574;2023-02-17T06:08:38;2.00;99.90
23102;DHT22;11720;51.214;22.574;2023-02-17T06:11:05;2.00;99.90
23102;DHT22;11720;51.214;22.574;2023-02-17T06:13:31;2.00;99.90
23102;DHT22;11720;51.214;22.574;2023-02-17T06:15:57;2.00;99.90
23102;DHT22;11720;51.214;22.574;2023-02-17T06:18:22;2.00;99.90
23102;DHT22;11720;51.214;22.574;2023-02-17T06:20:48;0.70;99.90
23102;DHT22;11720;51.214;22.574;2023-02-17T06:23:14;2.10;99.90
23102;DHT22;11720;51.214;22.574;2023-02-17T06:25:40;2.10;99.90
23102;DHT22;11720;51.214;22.574;2023-02-17T06:28:06;2.10;99.90
23102;DHT22;11720;51.214;22.574;2023-02-17T06:30:31;2.20;99.90
23102;DHT22;11720;51.214;22.574;2023-02-17T06:32:57;2.20;99.90
23102;DHT22;11720;51.214;22.574;2023-02-17T06:35:23;2.20;99.90
23102;DHT22;11720;51.214;22.574;2023-02-17T06:37:49;2.30;99.90
23102;DHT22;11720;51.214;22.574;2023-02-17T06:40:15;2.30;99.90
23102;DHT22;11720;51.214;22.574;2023-02-17T06:42:41;2.40;99.90
23102;DHT22;11720;51.214;22.574;2023-02-17T06:45:07;2.40;99.90
23102;DHT22;11720;51.214;22.574;2023-02-17T06:47:34;2.40;99.90
23102;DHT22;11720;51.214;22.574;2023-02-17T06:50:00;2.40;99.90
23102;DHT22;11720;51.214;22.574;2023-02-17T06:52:25;2.40;99.90
23102;DHT22;11720;51.214;22.574;2023-02-17T06:54:51;2.40;99.90
23102;DHT22;11720;51.214;22.574;2023-02-17T06:57:17;2.40;99.90
23102;DHT22;11720;51.214;22.574;2023-02-17T06:59:43;2.50;99.90
23102;DHT22;11720;51.214;22.574;2023-02-17T07:02:13;2.50;99.90
23102;DHT22;11720;51.214;22.574;2023-02-17T07:04:42;2.50;99.90
23102;DHT22;11720;51.214;22.574;2023-02-17T07:07:09;2.50;99.90
23102;DHT22;11720;51.214;22.574;2023-02-17T07:09:34;2.50;99.90
23102;DHT22;11720;51.214;22.574;2023-02-17T07:12:01;2.60;99.90
23102;DHT22;11720;51.214;22.574;2023-02-17T07:14:27;2.60;99.90
23102;DHT22;11720;51.214;22.574;2023-02-17T07:16:53;2.70;99.90
23102;DHT22;11720;51.214;22.574;2023-02-17T07:19:19;2.70;99.90
23102;DHT22;11720;51.214;22.574;2023-02-17T07:21:44;2.80;99.90
23102;DHT22;11720;51.214;22.574;2023-02-17T07:24:11;2.90;99.90
23102;DHT22;11720;51.214;22.574;2023-02-17T07:26:38;3.00;99.90
23102;DHT22;11720;51.214;22.574;2023-02-17T07:29:05;3.00;99.90
23102;DHT22;11720;51.214;22.574;2023-02-17T07:31:32;3.10;99.90
23102;DHT22;11720;51.214;22.574;2023-02-17T07:34:00;3.20;99.90
23102;DHT22;11720;51.214;22.574;2023-02-17T07:36:25;3.20;99.90
23102;DHT22;11720;51.214;22.574;2023-02-17T07:38:51;3.20;99.90
23102;DHT22;11720;51.214;22.574;2023-02-17T07:41:20;3.20;99.90
23102;DHT22;11720;51.214;22.574;2023-02-17T07:43:47;3.20;99.90
23102;DHT22;11720;51.214;22.574;2023-02-17T07:46:13;3.20;99.90
23102;DHT22;11720;51.214;22.574;2023-02-17T07:48:39;3.20;99.90
23102;DHT22;11720;51.214;22.574;2023-02-17T07:53:31;3.20;99.90
23102;DHT22;11720;51.214;22.574;2023-02-17T07:55:57;3.20;99.90
23102;DHT22;11720;51.214;22.574;2023-02-17T07:58:22;3.20;99.90
23102;DHT22;11720;51.214;22.574;2023-02-17T08:00:48;3.20;99.90
23102;DHT22;11720;51.214;22.574;2023-02-17T08:03:14;3.20;99.90
23102;DHT22;11720;51.214;22.574;2023-02-17T08:05:40;3.20;99.90
23102;DHT22;11720;51.214;22.574;2023-02-17T08:08:08;3.30;99.90
23102;DHT22;11720;51.214;22.574;2023-02-17T08:10:53;3.20;99.90
23102;DHT22;11720;51.214;22.574;2023-02-17T08:13:37;3.30;99.90
23102;DHT22;11720;51.214;22.574;2023-02-17T08:16:03;3.40;99.90
23102;DHT22;11720;51.214;22.574;2023-02-17T08:18:28;3.40;99.90
23102;DHT22;11720;51.214;22.574;2023-02-17T08:20:54;3.40;99.90
23102;DHT22;11720;51.214;22.574;2023-02-17T08:23:20;3.50;99.90
23102;DHT22;11720;51.214;22.574;2023-02-17T08:25:45;3.60;99.90
23102;DHT22;11720;51.214;22.574;2023-02-17T08:28:11;3.60;99.90
23102;DHT22;11720;51.214;22.574;2023-02-17T08:30:37;3.70;99.90
23102;DHT22;11720;51.214;22.574;2023-02-17T08:33:04;3.80;99.90
23102;DHT22;11720;51.214;22.574;2023-02-17T08:35:30;3.90;99.90
23102;DHT22;11720;51.214;22.574;2023-02-17T08:37:55;3.90;99.90
23102;DHT22;11720;51.214;22.574;2023-02-17T08:40:21;3.90;99.90
23102;DHT22;11720;51.214;22.574;2023-02-17T08:42:47;3.90;99.90
23102;DHT22;11720;51.214;22.574;2023-02-17T08:45:14;4.00;99.90
23102;DHT22;11720;51.214;22.574;2023-02-17T08:47:40;4.00;99.90
23102;DHT22;11720;51.214;22.574;2023-02-17T08:50:10;4.00;99.90
23102;DHT22;11720;51.214;22.574;2023-02-17T08:52:36;4.10;99.90
23102;DHT22;11720;51.214;22.574;2023-02-17T08:55:01;4.10;99.90
23102;DHT22;11720;51.214;22.574;2023-02-17T08:57:27;4.10;99.90
23102;DHT22;11720;51.214;22.574;2023-02-17T08:59:53;4.10;99.90
23102;DHT22;11720;51.214;22.574;2023-02-17T09:02:19;4.20;99.90
23102;DHT22;11720;51.214;22.574;2023-02-17T09:04:45;4.20;99.90
23102;DHT22;11720;51.214;22.574;2023-02-17T09:07:13;4.20;99.90
23102;DHT22;11720;51.214;22.574;2023-02-17T09:09:39;4.20;99.90
23102;DHT22;11720;51.214;22.574;2023-02-17T09:12:05;4.30;99.90
23102;DHT22;11720;51.214;22.574;2023-02-17T09:14:31;4.30;99.90
23102;DHT22;11720;51.214;22.574;2023-02-17T09:16:57;4.40;99.90
23102;DHT22;11720;51.214;22.574;2023-02-17T09:19:23;4.40;99.90
23102;DHT22;11720;51.214;22.574;2023-02-17T09:21:49;4.60;99.90
23102;DHT22;11720;51.214;22.574;2023-02-17T09:24:16;4.70;99.90
23102;DHT22;11720;51.214;22.574;2023-02-17T09:26:42;4.80;99.90
23102;DHT22;11720;51.214;22.574;2023-02-17T09:29:08;4.90;99.90
23102;DHT22;11720;51.214;22.574;2023-02-17T09:31:34;4.90;99.90
23102;DHT22;11720;51.214;22.574;2023-02-17T09:34:00;5.10;99.90
23102;DHT22;11720;51.214;22.574;2023-02-17T09:36:32;5.00;99.90
23102;DHT22;11720;51.214;22.574;2023-02-17T09:38:58;5.00;99.90
23102;DHT22;11720;51.214;22.574;2023-02-17T09:43:53;5.20;99.90
23102;DHT22;11720;51.214;22.574;2023-02-17T09:46:30;5.30;99.90
23102;DHT22;11720;51.214;22.574;2023-02-17T09:49:35;5.40;99.90
23102;DHT22;11720;51.214;22.574;2023-02-17T09:55:05;5.60;99.90
23102;DHT22;11720;51.214;22.574;2023-02-17T09:57:39;5.60;99.90
23102;DHT22;11720;51.214;22.574;2023-02-17T10:00:12;5.60;99.90
23102;DHT22;11720;51.214;22.574;2023-02-17T10:05:10;5.70;99.90
23102;DHT22;11720;51.214;22.574;2023-02-17T10:07:43;5.60;99.90
23102;DHT22;11720;51.214;22.574;2023-02-17T10:10:35;5.60;99.90
23102;DHT22;11720;51.214;22.574;2023-02-17T10:13:04;5.70;99.90
23102;DHT22;11720;51.214;22.574;2023-02-17T10:15:34;5.70;99.90
23102;DHT22;11720;51.214;22.574;2023-02-17T10:18:15;5.70;99.90
23102;DHT22;11720;51.214;22.574;2023-02-17T10:20:48;5.70;99.90
23102;DHT22;11720;51.214;22.574;2023-02-17T10:23:25;5.80;99.90
23102;DHT22;11720;51.214;22.574;2023-02-17T10:26:05;5.90;99.90
23102;DHT22;11720;51.214;22.574;2023-02-17T10:31:39;6.10;99.90
23102;DHT22;11720;51.214;22.574;2023-02-17T10:34:35;6.20;99.90
23102;DHT22;11720;51.214;22.574;2023-02-17T10:37:14;6.30;99.90
23102;DHT22;11720;51.214;22.574;2023-02-17T10:39:52;6.40;99.90
23102;DHT22;11720;51.214;22.574;2023-02-17T10:44:48;6.50;99.90
23102;DHT22;11720;51.214;22.574;2023-02-17T10:47:16;6.40;99.90
23102;DHT22;11720;51.214;22.574;2023-02-17T10:49:46;6.40;99.90
23102;DHT22;11720;51.214;22.574;2023-02-17T10:52:17;6.30;99.90
23102;DHT22;11720;51.214;22.574;2023-02-17T10:54:56;6.40;99.90
23102;DHT22;11720;51.214;22.574;2023-02-17T10:57:27;6.40;99.90
23102;DHT22;11720;51.214;22.574;2023-02-17T10:59:57;6.50;99.90
23102;DHT22;11720;51.214;22.574;2023-02-17T11:02:42;6.60;99.90
23102;DHT22;11720;51.214;22.574;2023-02-17T11:05:29;6.60;99.90
23102;DHT22;11720;51.214;22.574;2023-02-17T11:08:03;6.50;99.90
23102;DHT22;11720;51.214;22.574;2023-02-17T11:10:33;6.50;99.90
23102;DHT22;11720;51.214;22.574;2023-02-17T11:13:00;6.60;99.90
23102;DHT22;11720;51.214;22.574;2023-02-17T11:15:29;6.60;99.90
23102;DHT22;11720;51.214;22.574;2023-02-17T11:17:58;6.70;99.90
23102;DHT22;11720;51.214;22.574;2023-02-17T11:20:32;6.60;99.90
23102;DHT22;11720;51.214;22.574;2023-02-17T11:25:31;6.60;99.90
23102;DHT22;11720;51.214;22.574;2023-02-17T11:28:00;6.70;99.90
23102;DHT22;11720;51.214;22.574;2023-02-17T11:30:28;6.60;99.90
23102;DHT22;11720;51.214;22.574;2023-02-17T11:32:54;6.60;99.90
23102;DHT22;11720;51.214;22.574;2023-02-17T11:35:27;6.60;99.90
23102;DHT22;11720;51.214;22.574;2023-02-17T11:38:16;6.60;99.90
23102;DHT22;11720;51.214;22.574;2023-02-17T11:40:58;6.70;99.90
23102;DHT22;11720;51.214;22.574;2023-02-17T11:43:25;6.80;99.90
23102;DHT22;11720;51.214;22.574;2023-02-17T11:46:08;6.80;99.90
23102;DHT22;11720;51.214;22.574;2023-02-17T11:54:53;6.70;99.90
23102;DHT22;11720;51.214;22.574;2023-02-17T12:08:25;6.70;99.90
23102;DHT22;11720;51.214;22.574;2023-02-17T12:35:51;6.70;99.90
23102;DHT22;11720;51.214;22.574;2023-02-17T12:38:28;6.60;99.90
23102;DHT22;11720;51.214;22.574;2023-02-17T12:41:19;6.70;99.90
23102;DHT22;11720;51.214;22.574;2023-02-17T12:43:54;6.60;99.90
23102;DHT22;11720;51.214;22.574;2023-02-17T12:46:41;6.60;99.90
23102;DHT22;11720;51.214;22.574;2023-02-17T12:56:57;6.60;99.90
23102;DHT22;11720;51.214;22.574;2023-02-17T12:59:45;6.60;99.90
23102;DHT22;11720;51.214;22.574;2023-02-17T13:02:17;6.60;99.90
23102;DHT22;11720;51.214;22.574;2023-02-17T13:04:45;6.60;99.90
23102;DHT22;11720;51.214;22.574;2023-02-17T13:09:53;6.50;99.90
23102;DHT22;11720;51.214;22.574;2023-02-17T13:14:50;6.50;99.90
23102;DHT22;11720;51.214;22.574;2023-02-17T13:17:50;6.50;99.90
23102;DHT22;11720;51.214;22.574;2023-02-17T13:22:43;6.50;99.90
23102;DHT22;11720;51.214;22.574;2023-02-17T13:25:31;6.50;99.90
23102;DHT22;11720;51.214;22.574;2023-02-17T13:27:59;6.60;99.90
23102;DHT22;11720;51.214;22.574;2023-02-17T13:30:46;6.60;99.90
23102;DHT22;11720;51.214;22.574;2023-02-17T13:35:44;6.50;99.90
23102;DHT22;11720;51.214;22.574;2023-02-17T13:38:10;6.50;99.90
23102;DHT22;11720;51.214;22.574;2023-02-17T13:40:41;6.50;99.90
23102;DHT22;11720;51.214;22.574;2023-02-17T13:43:15;6.50;99.90
23102;DHT22;11720;51.214;22.574;2023-02-17T13:45:55;6.50;99.90
23102;DHT22;11720;51.214;22.574;2023-02-17T13:48:25;6.50;99.90
23102;DHT22;11720;51.214;22.574;2023-02-17T13:50:56;6.50;99.90
23102;DHT22;11720;51.214;22.574;2023-02-17T13:56:09;6.50;99.90
23102;DHT22;11720;51.214;22.574;2023-02-17T13:58:37;6.50;99.90
23102;DHT22;11720;51.214;22.574;2023-02-17T14:01:05;6.50;99.90
23102;DHT22;11720;51.214;22.574;2023-02-17T14:03:44;6.60;99.90
23102;DHT22;11720;51.214;22.574;2023-02-17T14:06:25;6.60;99.90
23102;DHT22;11720;51.214;22.574;2023-02-17T14:08:51;6.60;99.90
23102;DHT22;11720;51.214;22.574;2023-02-17T14:11:20;6.60;99.90
23102;DHT22;11720;51.214;22.574;2023-02-17T14:13:49;6.60;99.90
23102;DHT22;11720;51.214;22.574;2023-02-17T14:16:34;6.60;99.90
23102;DHT22;11720;51.214;22.574;2023-02-17T14:19:18;6.60;99.90
23102;DHT22;11720;51.214;22.574;2023-02-17T14:24:34;6.60;99.90
23102;DHT22;11720;51.214;22.574;2023-02-17T14:27:06;6.60;99.90
23102;DHT22;11720;51.214;22.574;2023-02-17T14:29:48;6.70;99.90
23102;DHT22;11720;51.214;22.574;2023-02-17T14:32:29;6.70;99.90
23102;DHT22;11720;51.214;22.574;2023-02-17T14:35:25;6.70;99.90
23102;DHT22;11720;51.214;22.574;2023-02-17T14:37:50;6.70;99.90
23102;DHT22;11720;51.214;22.574;2023-02-17T14:40:18;6.70;99.90
23102;DHT22;11720;51.214;22.574;2023-02-17T14:42:44;6.70;99.90
23102;DHT22;11720;51.214;22.574;2023-02-17T14:45:11;6.60;99.90
23102;DHT22;11720;51.214;22.574;2023-02-17T14:47:37;6.60;99.90
23102;DHT22;11720;51.214;22.574;2023-02-17T14:50:02;6.60;99.90
23102;DHT22;11720;51.214;22.574;2023-02-17T14:52:28;6.50;99.90
23102;DHT22;11720;51.214;22.574;2023-02-17T14:54:54;6.40;99.90
23102;DHT22;11720;51.214;22.574;2023-02-17T14:57:25;6.40;99.90
23102;DHT22;11720;51.214;22.574;2023-02-17T14:59:51;6.40;99.90
23102;DHT22;11720;51.214;22.574;2023-02-17T15:02:22;6.40;99.90
23102;DHT22;11720;51.214;22.574;2023-02-17T15:04:49;6.40;99.90
23102;DHT22;11720;51.214;22.574;2023-02-17T15:07:18;6.30;99.90
23102;DHT22;11720;51.214;22.574;2023-02-17T15:09:45;6.30;99.90
23102;DHT22;11720;51.214;22.574;2023-02-17T15:12:13;6.20;99.90
23102;DHT22;11720;51.214;22.574;2023-02-17T15:14:40;6.20;99.90
23102;DHT22;11720;51.214;22.574;2023-02-17T15:17:07;6.10;99.90
23102;DHT22;11720;51.214;22.574;2023-02-17T15:19:33;6.10;99.90
23102;DHT22;11720;51.214;22.574;2023-02-17T15:21:59;6.10;99.90
23102;DHT22;11720;51.214;22.574;2023-02-17T15:24:31;6.10;99.90
23102;DHT22;11720;51.214;22.574;2023-02-17T15:26:58;6.10;99.90
23102;DHT22;11720;51.214;22.574;2023-02-17T15:29:24;6.10;99.90
23102;DHT22;11720;51.214;22.574;2023-02-17T15:31:52;6.10;99.90
23102;DHT22;11720;51.214;22.574;2023-02-17T15:34:21;6.00;99.90
23102;DHT22;11720;51.214;22.574;2023-02-17T15:36:47;6.10;99.90
23102;DHT22;11720;51.214;22.574;2023-02-17T15:39:16;6.00;99.90
23102;DHT22;11720;51.214;22.574;2023-02-17T15:41:43;6.00;99.90
23102;DHT22;11720;51.214;22.574;2023-02-17T15:44:18;6.10;99.90
23102;DHT22;11720;51.214;22.574;2023-02-17T15:46:45;6.10;99.90
23102;DHT22;11720;51.214;22.574;2023-02-17T15:49:12;6.00;99.90
23102;DHT22;11720;51.214;22.574;2023-02-17T15:51:38;6.00;99.90
23102;DHT22;11720;51.214;22.574;2023-02-17T15:54:04;6.00;99.90
23102;DHT22;11720;51.214;22.574;2023-02-17T15:56:44;6.00;99.90
23102;DHT22;11720;51.214;22.574;2023-02-17T15:59:24;6.00;99.90
23102;DHT22;11720;51.214;22.574;2023-02-17T16:01:52;6.10;99.90
23102;DHT22;11720;51.214;22.574;2023-02-17T16:04:20;6.10;99.90
23102;DHT22;11720;51.214;22.574;2023-02-17T16:06:46;6.00;99.90
23102;DHT22;11720;51.214;22.574;2023-02-17T16:09:12;6.00;99.90
23102;DHT22;11720;51.214;22.574;2023-02-17T16:11:50;3.80;99.90
23102;DHT22;11720;51.214;22.574;2023-02-17T16:14:34;6.00;99.90
23102;DHT22;11720;51.214;22.574;2023-02-17T16:17:02;6.00;99.90
23102;DHT22;11720;51.214;22.574;2023-02-17T16:19:28;6.10;99.90
23102;DHT22;11720;51.214;22.574;2023-02-17T16:21:54;6.10;99.90
23102;DHT22;11720;51.214;22.574;2023-02-17T16:24:20;6.20;99.90
23102;DHT22;11720;51.214;22.574;2023-02-17T16:26:46;6.20;99.90
23102;DHT22;11720;51.214;22.574;2023-02-17T16:29:19;6.20;99.90
23102;DHT22;11720;51.214;22.574;2023-02-17T16:31:46;6.20;99.90
23102;DHT22;11720;51.214;22.574;2023-02-17T16:34:17;6.40;99.90
23102;DHT22;11720;51.214;22.574;2023-02-17T16:36:46;6.30;99.90
23102;DHT22;11720;51.214;22.574;2023-02-17T16:39:14;6.30;99.90
23102;DHT22;11720;51.214;22.574;2023-02-17T16:41:40;6.30;99.90
23102;DHT22;11720;51.214;22.574;2023-02-17T16:44:07;6.30;99.90
23102;DHT22;11720;51.214;22.574;2023-02-17T16:46:35;6.40;99.90
23102;DHT22;11720;51.214;22.574;2023-02-17T16:49:03;6.40;99.90
23102;DHT22;11720;51.214;22.574;2023-02-17T16:51:32;6.40;99.90
23102;DHT22;11720;51.214;22.574;2023-02-17T16:53:58;6.30;99.90
23102;DHT22;11720;51.214;22.574;2023-02-17T16:56:34;6.30;99.90
23102;DHT22;11720;51.214;22.574;2023-02-17T16:59:01;6.30;99.90
23102;DHT22;11720;51.214;22.574;2023-02-17T17:01:26;6.30;99.90
23102;DHT22;11720;51.214;22.574;2023-02-17T17:03:52;6.30;99.90
23102;DHT22;11720;51.214;22.574;2023-02-17T17:06:21;6.30;99.90
23102;DHT22;11720;51.214;22.574;2023-02-17T17:08:48;6.30;99.90
23102;DHT22;11720;51.214;22.574;2023-02-17T17:11:15;6.20;99.90
23102;DHT22;11720;51.214;22.574;2023-02-17T17:13:43;6.20;99.90
23102;DHT22;11720;51.214;22.574;2023-02-17T17:16:14;6.20;99.90
23102;DHT22;11720;51.214;22.574;2023-02-17T17:18:40;6.30;99.90
23102;DHT22;11720;51.214;22.574;2023-02-17T17:21:11;6.20;99.90
23102;DHT22;11720;51.214;22.574;2023-02-17T17:23:38;6.20;99.90
23102;DHT22;11720;51.214;22.574;2023-02-17T17:26:35;6.20;99.90
23102;DHT22;11720;51.214;22.574;2023-02-17T17:29:03;6.20;99.90
23102;DHT22;11720;51.214;22.574;2023-02-17T17:31:29;6.20;99.90
23102;DHT22;11720;51.214;22.574;2023-02-17T17:33:55;6.20;99.90
23102;DHT22;11720;51.214;22.574;2023-02-17T17:38:46;6.20;99.90